Time;durP1;ratioP1;P1;durP2;ratioP2;P2;SDS_P1;SDS_P2;PMS_P1;PMS_P2;Temp;Humidity;BMP_temperature;BMP_pressure;BME280_temperature;BME280_humidity;BME280_pressure;Samples;Min_cycle;Max_cycle;Signal;HPM_P1;HPM_P2
2020/12/22 00:00:38;;;;;;;3.63;0.93;;;16.80;88.40;;;;;;2085488;28;20049;-77
2020/12/22 00:02:11;;;;;;;4.03;1.27;;;17.00;87.20;;;;;;2076221;28;20073;-77
2020/12/22 00:03:24;;;;;;;4.70;1.38;;;16.60;88.40;;;;;;2082367;28;20065;-77
2020/12/22 00:04:41;;;;;;;3.72;1.13;;;16.70;88.60;;;;;;2069511;28;20141;-78
2020/12/22 00:06:01;;;;;;;6.13;1.42;;;16.50;88.80;;;;;;2075981;28;20072;-78
2020/12/22 00:07:20;;;;;;;6.72;1.60;;;16.40;89.50;;;;;;2076825;28;20435;-76
2020/12/22 00:08:42;;;;;;;8.38;1.48;;;16.30;90.00;;;;;;2080397;28;20103;-77
2020/12/22 00:09:59;;;;;;;3.83;1.13;;;16.30;90.20;;;;;;2081303;28;20064;-77
2020/12/22 00:11:13;;;;;;;5.15;1.20;;;16.20;90.30;;;;;;2068778;28;20042;-77
2020/12/22 00:12:42;;;;;;;6.28;1.40;;;16.20;90.30;;;;;;2069282;28;20137;-77
2020/12/22 00:13:53;;;;;;;7.28;1.48;;;16.00;90.80;;;;;;2066772;28;20190;-77
2020/12/22 00:15:01;;;;;;;3.40;1.20;;;16.00;90.80;;;;;;2068712;28;20133;-77
2020/12/22 00:16:17;;;;;;;12.63;1.48;;;16.10;90.70;;;;;;2075810;28;20080;-77
2020/12/22 00:17:26;;;;;;;8.60;1.45;;;16.10;90.80;;;;;;2074949;28;20414;-77
2020/12/22 00:18:42;;;;;;;5.93;1.30;;;16.10;90.80;;;;;;2068656;28;20061;-78
2020/12/22 00:20:11;;;;;;;4.38;1.33;;;16.40;90.20;;;;;;2066886;28;20042;-77
2020/12/22 00:21:23;;;;;;;8.82;2.10;;;16.30;90.30;;;;;;2072506;28;20050;-77
2020/12/22 00:22:34;;;;;;;;;;;16.30;90.20;;;;;;2067475;28;20089;-77
2020/12/22 00:24:15;;;;;;;9.60;1.58;;;16.50;90.00;;;;;;2088003;28;20194;-77
2020/12/22 00:25:50;;;;;;;4.85;1.10;;;16.50;90.00;;;;;;2091723;28;20053;-77
2020/12/22 00:27:13;;;;;;;7.32;1.35;;;16.50;89.80;;;;;;2093266;28;20041;-77
2020/12/22 00:28:41;;;;;;;3.47;1.10;;;16.40;90.00;;;;;;2083662;28;20068;-77
2020/12/22 00:29:49;;;;;;;9.98;1.38;;;16.30;90.10;;;;;;2088809;28;20049;-77
2020/12/22 00:31:12;;;;;;;5.07;1.35;;;16.50;89.70;;;;;;2094096;28;20053;-77
2020/12/22 00:32:22;;;;;;;5.85;1.45;;;16.40;90.00;;;;;;2081753;28;20100;-77
2020/12/22 00:33:46;;;;;;;5.15;1.15;;;16.10;90.40;;;;;;2078880;28;20046;-77
2020/12/22 00:34:55;;;;;;;5.80;1.23;;;16.20;90.50;;;;;;2079504;28;20071;-78
2020/12/22 00:36:23;;;;;;;4.80;1.50;;;16.40;90.20;;;;;;2087941;28;20067;-77
2020/12/22 00:37:35;;;;;;;5.80;1.17;;;16.20;90.40;;;;;;2078741;28;20049;-77
2020/12/22 00:38:58;;;;;;;3.47;0.75;;;16.20;90.60;;;;;;2085408;28;20103;-77
2020/12/22 00:40:24;;;;;;;4.38;1.35;;;16.10;90.60;;;;;;2091336;28;20297;-78
2020/12/22 00:41:33;;;;;;;5.60;1.35;;;16.20;90.50;;;;;;2093053;28;20289;-77
2020/12/22 00:43:14;;;;;;;4.22;1.05;;;16.20;90.50;;;;;;2092236;28;20103;-77
2020/12/22 00:44:37;;;;;;;7.05;1.23;;;16.20;90.50;;;;;;2084380;28;20105;-77
2020/12/22 00:46:01;;;;;;;6.10;1.17;;;16.20;90.50;;;;;;2079572;28;20054;-77
2020/12/22 00:47:43;;;;;;;2.80;1.02;;;16.10;90.70;;;;;;2089071;28;20056;-77
2020/12/22 00:49:20;;;;;;;10.85;1.30;;;16.20;90.50;;;;;;2089562;28;20069;-77
2020/12/22 00:50:38;;;;;;;;;;;;;;;;;;;;;
2020/12/22 00:52:10;;;;;;;6.63;1.00;;;16.30;90.10;;;;;;2095673;28;20049;-77
2020/12/22 00:53:26;;;;;;;2.10;1.00;;;16.20;90.70;;;;;;2092660;28;20049;-77
2020/12/22 00:54:55;;;;;;;6.03;1.25;;;16.20;90.40;;;;;;2098386;28;20337;-77
2020/12/22 00:56:11;;;;;;;2.08;0.93;;;16.00;90.80;;;;;;2098446;28;20063;-77
2020/12/22 00:58:01;;;;;;;3.78;1.48;;;16.30;90.40;;;;;;2101753;28;20105;-77
2020/12/22 00:59:38;;;;;;;4.15;1.20;;;15.60;89.40;;;;;;2101633;28;20044;-78
2020/12/22 01:01:03;;;;;;;6.93;1.40;;;16.20;90.30;;;;;;2101361;28;20060;-78
2020/12/22 01:02:27;;;;;;;3.65;0.98;;;16.30;90.20;;;;;;2109847;28;20484;-78
2020/12/22 01:03:50;;;;;;;5.72;0.85;;;16.50;89.90;;;;;;2101318;28;20098;-78
2020/12/22 01:05:19;;;;;;;2.65;0.70;;;16.50;89.70;;;;;;2098861;28;20067;-78
2020/12/22 01:06:36;;;;;;;9.43;2.08;;;16.50;89.70;;;;;;2099734;28;20075;-78
2020/12/22 01:08:03;;;;;;;4.85;0.98;;;16.40;90.10;;;;;;2105781;28;20040;-78
2020/12/22 01:09:11;;;;;;;4.32;1.17;;;16.50;89.70;;;;;;2105998;28;20067;-77
2020/12/22 01:11:00;;;;;;;4.93;0.95;;;16.50;89.40;;;;;;2102206;28;20109;-78
2020/12/22 01:12:15;;;;;;;2.95;0.90;;;16.20;90.20;;;;;;2102688;28;20094;-78
2020/12/22 01:13:32;;;;;;;3.30;0.75;;;16.30;90.30;;;;;;2102381;28;20043;-78
2020/12/22 01:14:59;;;;;;;4.55;1.00;;;16.30;90.20;;;;;;2104643;28;20346;-78
2020/12/22 01:16:59;;;;;;;7.43;1.10;;;16.40;90.20;;;;;;2102793;28;20043;-77
2020/12/22 01:18:22;;;;;;;5.38;0.85;;;16.60;90.20;;;;;;2105305;28;20149;-77
2020/12/22 01:19:50;;;;;;;3.28;0.85;;;16.20;90.50;;;;;;2099866;28;20052;-77
2020/12/22 01:21:32;;;;;;;5.50;1.35;;;16.40;90.30;;;;;;2099892;28;20049;-77
2020/12/22 01:23:27;;;;;;;4.07;1.00;;;16.50;90.00;;;;;;2107850;28;20056;-77
2020/12/22 01:25:48;;;;;;;8.10;1.00;;;15.20;88.80;;;;;;2096473;28;20053;-78
2020/12/22 01:27:09;;;;;;;8.15;1.00;;;16.70;89.60;;;;;;2106501;28;20044;-78
2020/12/22 01:28:19;;;;;;;2.65;0.88;;;16.60;89.10;;;;;;2108136;28;20044;-78
2020/12/22 01:30:06;;;;;;;4.40;1.35;;;16.70;88.90;;;;;;2108075;28;20082;-77
2020/12/22 01:32:00;;;;;;;3.47;0.98;;;16.20;89.20;;;;;;2108295;28;20063;-77
2020/12/22 01:33:53;;;;;;;3.03;0.90;;;16.50;90.00;;;;;;2108898;28;20094;-77
2020/12/22 01:35:54;;;;;;;4.60;1.00;;;16.40;90.20;;;;;;2103305;28;20071;-77
2020/12/22 01:37:33;;;;;;;4.93;0.75;;;16.20;90.40;;;;;;2194282;22;20031;-77
2020/12/22 01:39:34;;;;;;;5.28;0.93;;;16.20;90.50;;;;;;2086862;28;20061;-77
2020/12/22 01:41:31;;;;;;;6.28;0.95;;;16.30;90.70;;;;;;2058857;28;20074;-78
2020/12/22 01:43:29;;;;;;;4.47;0.80;;;16.10;90.80;;;;;;2092145;28;20064;-78
2020/12/22 01:45:23;;;;;;;2.55;0.80;;;16.20;90.70;;;;;;2068151;28;20042;-77
2020/12/22 01:47:37;;;;;;;8.50;1.10;;;16.30;90.50;;;;;;2083187;28;20429;-77
2020/12/22 01:49:34;;;;;;;3.88;0.80;;;16.50;89.80;;;;;;2100132;28;20073;-77
2020/12/22 01:51:29;;;;;;;4.80;0.80;;;17.30;89.50;;;;;;2075275;28;20078;-77
2020/12/22 01:55:13;;;;;;;3.77;0.87;;;17.10;87.80;;;;;;2075565;28;20050;-77
2020/12/22 01:57:36;;;;;;;3.45;0.70;;;17.00;87.90;;;;;;2059209;28;20069;-77
2020/12/22 01:59:19;;;;;;;5.03;0.75;;;17.00;89.30;;;;;;2035678;29;20072;-76
2020/12/22 02:01:06;;;;;;;1.95;0.75;;;16.80;90.10;;;;;;2043992;29;20031;-77
2020/12/22 02:03:13;;;;;;;5.05;0.98;;;16.80;90.00;;;;;;2043669;29;20063;-77
2020/12/22 02:05:06;;;;;;;2.17;0.63;;;16.50;90.70;;;;;;2053214;29;20051;-77
2020/12/22 02:08:47;;;;;;;3.60;0.70;;;16.70;90.10;;;;;;2045829;29;20476;-76
2020/12/22 02:09:55;;;;;;;2.97;0.70;;;16.70;90.30;;;;;;2045630;29;20059;-77
2020/12/22 02:11:12;;;;;;;2.58;0.60;;;16.80;90.00;;;;;;2052443;29;20066;-77
2020/12/22 02:12:31;;;;;;;2.42;0.90;;;16.90;89.80;;;;;;2050718;29;20075;-77
2020/12/22 02:14:05;;;;;;;2.88;0.68;;;17.00;89.70;;;;;;2037201;29;20041;-77
2020/12/22 02:15:19;;;;;;;4.63;0.82;;;16.90;89.40;;;;;;2046055;29;20074;-76
2020/12/22 02:16:32;;;;;;;2.30;0.60;;;15.70;90.30;;;;;;2046876;29;20048;-76
2020/12/22 02:18:04;;;;;;;3.10;0.90;;;16.40;91.10;;;;;;2038508;29;20080;-75
2020/12/22 02:19:12;;;;;;;3.88;0.75;;;16.40;90.80;;;;;;2044693;29;20232;-76
2020/12/22 02:20:21;;;;;;;3.83;0.80;;;16.40;90.90;;;;;;2044314;29;20524;-76
2020/12/22 02:21:35;;;;;;;3.08;0.70;;;16.40;91.10;;;;;;2044104;29;20081;-76
2020/12/22 02:22:47;;;;;;;2.58;0.63;;;16.70;90.50;;;;;;2073177;28;20046;-76
2020/12/22 02:24:19;;;;;;;5.28;0.65;;;16.70;90.10;;;;;;2086263;28;20055;-77
2020/12/22 02:25:28;;;;;;;4.57;0.80;;;16.50;90.50;;;;;;2084558;28;20432;-76
2020/12/22 02:26:41;;;;;;;3.80;0.90;;;16.70;90.50;;;;;;2085476;28;20057;-76
2020/12/22 02:27:52;;;;;;;2.97;0.50;;;16.80;90.10;;;;;;2084905;28;20062;-76
2020/12/22 02:28:57;;;;;;;2.70;0.47;;;16.70;90.10;;;;;;2084609;28;20053;-76
2020/12/22 02:30:06;;;;;;;4.78;0.77;;;16.50;90.80;;;;;;2084829;28;20045;-77
2020/12/22 02:31:33;;;;;;;0.95;0.40;;;16.10;91.30;;;;;;2068063;28;20061;-76
2020/12/22 02:32:55;;;;;;;3.88;0.63;;;16.20;91.20;;;;;;2057962;28;20056;-77
2020/12/22 02:34:04;;;;;;;3.08;0.68;;;16.40;91.10;;;;;;2072170;28;20053;-76
2020/12/22 02:35:17;;;;;;;2.50;0.60;;;16.40;91.10;;;;;;2070643;28;20104;-76
2020/12/22 02:36:24;;;;;;;3.40;0.65;;;16.30;91.30;;;;;;2078493;28;20418;-77
2020/12/22 02:37:33;;;;;;;4.20;0.52;;;16.50;90.70;;;;;;2078479;28;20045;-77
2020/12/22 02:38:57;;;;;;;2.58;0.65;;;16.50;90.70;;;;;;2079105;28;20430;-76
2020/12/22 02:40:45;;;;;;;3.47;0.60;;;16.70;90.20;;;;;;2085503;28;20068;-77
2020/12/22 02:42:18;;;;;;;4.22;0.40;;;16.70;90.50;;;;;;2092846;28;20049;-76
2020/12/22 02:43:43;;;;;;;2.95;0.50;;;16.50;90.70;;;;;;2081671;28;20049;-76
2020/12/22 02:45:08;;;;;;;2.60;0.50;;;16.40;91.20;;;;;;2092588;28;20052;-77
2020/12/22 02:46:15;;;;;;;4.68;0.50;;;16.40;91.30;;;;;;2094464;28;20138;-77
2020/12/22 02:47:38;;;;;;;4.07;0.50;;;16.70;90.90;;;;;;2085690;28;20088;-77
2020/12/22 02:48:54;;;;;;;1.77;0.70;;;16.40;91.30;;;;;;2090452;28;20059;-76
2020/12/22 02:50:19;;;;;;;2.65;0.77;;;16.50;91.10;;;;;;2093434;28;20053;-77
2020/12/22 02:51:48;;;;;;;1.77;0.50;;;16.40;91.80;;;;;;2079514;28;20050;-77
2020/12/22 02:53:04;;;;;;;5.07;0.80;;;16.30;91.90;;;;;;2078120;28;20103;-77
2020/12/22 02:54:11;;;;;;;4.22;0.70;;;16.50;92.00;;;;;;2086566;28;20529;-77
2020/12/22 02:55:18;;;;;;;4.43;0.70;;;16.30;91.70;;;;;;2086794;28;20053;-76
2020/12/22 02:56:40;;;;;;;4.47;0.85;;;16.60;91.60;;;;;;2077896;28;20049;-77
2020/12/22 02:57:47;;;;;;;1.05;0.40;;;16.50;91.40;;;;;;2080578;28;20080;-77
2020/12/22 02:58:57;;;;;;;2.08;0.38;;;16.70;91.30;;;;;;2076715;28;20437;-76
2020/12/22 03:00:26;;;;;;;2.83;0.60;;;16.90;90.50;;;;;;2077660;28;20105;-76
2020/12/22 03:01:40;;;;;;;3.50;0.55;;;16.50;91.10;;;;;;2080281;28;20286;-77
2020/12/22 03:03:13;;;;;;;7.55;0.95;;;16.70;91.40;;;;;;2070622;28;20070;-77
2020/12/22 03:04:39;;;;;;;2.92;0.70;;;16.80;90.90;;;;;;2072124;28;20081;-77
2020/12/22 03:05:45;;;;;;;2.97;0.60;;;16.80;90.60;;;;;;2078890;28;20048;-76
2020/12/22 03:07:13;;;;;;;2.65;0.70;;;16.70;90.40;;;;;;2069784;28;20046;-77
2020/12/22 03:08:59;;;;;;;2.67;0.60;;;16.70;90.40;;;;;;2083810;28;20137;-77
2020/12/22 03:10:19;;;;;;;2.85;0.60;;;17.00;90.20;;;;;;2085978;28;20073;-76
2020/12/22 03:11:29;;;;;;;3.83;0.60;;;17.20;88.50;;;;;;2084931;28;20099;-77
2020/12/22 03:12:35;;;;;;;2.03;0.50;;;17.30;88.60;;;;;;2086713;28;20106;-77
2020/12/22 03:14:00;;;;;;;4.47;0.80;;;17.30;88.40;;;;;;2087341;28;20045;-77
2020/12/22 03:15:20;;;;;;;2.55;0.70;;;17.30;88.50;;;;;;2088194;28;20045;-78
2020/12/22 03:16:26;;;;;;;2.42;0.70;;;17.20;88.90;;;;;;2088924;28;20109;-77
2020/12/22 03:17:34;;;;;;;4.32;0.70;;;17.30;88.50;;;;;;2088615;28;20122;-77
2020/12/22 03:18:57;;;;;;;4.88;0.80;;;17.20;88.80;;;;;;2077731;28;20160;-77
2020/12/22 03:20:20;;;;;;;2.35;0.75;;;17.10;89.20;;;;;;2082059;28;20095;-77
2020/12/22 03:21:32;;;;;;;3.15;0.60;;;17.20;89.70;;;;;;2086965;28;20045;-77
2020/12/22 03:22:47;;;;;;;1.95;0.60;;;17.00;90.00;;;;;;2085423;28;20049;-77
2020/12/22 03:23:52;;;;;;;2.13;0.63;;;16.80;90.40;;;;;;2080655;28;20057;-76
2020/12/22 03:25:19;;;;;;;2.55;0.50;;;16.00;90.70;;;;;;2084818;28;20080;-77
2020/12/22 03:26:34;;;;;;;1.27;0.40;;;16.80;90.60;;;;;;2074290;28;20560;-77
2020/12/22 03:27:40;;;;;;;2.45;0.50;;;16.80;90.60;;;;;;2074378;28;20137;-77
2020/12/22 03:28:58;;;;;;;4.30;0.82;;;17.70;90.70;;;;;;2077276;28;20046;-77
2020/12/22 03:30:08;;;;;;;3.05;0.60;;;16.80;90.60;;;;;;2083188;28;20140;-77
2020/12/22 03:31:25;;;;;;;;;;;16.60;91.30;;;;;;2078977;28;20115;-77
2020/12/22 03:32:33;;;;;;;2.10;0.57;;;16.70;91.80;;;;;;2077650;28;19971;-77
2020/12/22 03:33:49;;;;;;;3.55;0.73;;;16.50;91.60;;;;;;2078758;28;20065;-77
2020/12/22 03:35:00;;;;;;;3.05;0.73;;;16.40;92.30;;;;;;2077920;28;20095;-77
2020/12/22 03:36:13;;;;;;;1.65;0.50;;;16.40;92.30;;;;;;2076205;28;20037;-77
2020/12/22 03:37:36;;;;;;;3.13;0.55;;;16.60;91.30;;;;;;2067226;28;20053;-77
2020/12/22 03:38:55;;;;;;;2.00;0.50;;;16.80;91.00;;;;;;2062384;28;20133;-77
2020/12/22 03:40:32;;;;;;;5.25;0.55;;;16.80;91.00;;;;;;2066058;28;20069;-77
2020/12/22 03:41:51;;;;;;;2.55;0.63;;;16.70;91.20;;;;;;2071112;28;20085;-76
2020/12/22 03:43:38;;;;;;;6.20;0.70;;;16.70;91.50;;;;;;2046035;29;20105;-77
2020/12/22 03:44:47;;;;;;;6.03;0.60;;;17.00;90.90;;;;;;2060812;28;20100;-77
2020/12/22 03:46:01;;;;;;;1.55;0.70;;;17.00;90.50;;;;;;2070158;28;20606;-76
2020/12/22 03:47:34;;;;;;;2.47;0.52;;;17.20;89.70;;;;;;2068568;28;20050;-76
2020/12/22 03:48:57;;;;;;;1.80;0.60;;;17.10;90.20;;;;;;2067242;28;20054;-76
2020/12/22 03:50:24;;;;;;;3.50;0.60;;;17.20;90.00;;;;;;2070079;28;20085;-76
2020/12/22 03:51:37;;;;;;;1.85;0.60;;;17.20;89.80;;;;;;2083907;28;20128;-77
2020/12/22 03:52:42;;;;;;;2.70;0.65;;;17.10;90.00;;;;;;2082785;28;20065;-77
2020/12/22 03:54:00;;;;;;;5.63;0.70;;;16.90;90.40;;;;;;2077659;28;20085;-76
2020/12/22 03:55:27;;;;;;;2.15;0.50;;;17.00;90.00;;;;;;2071838;28;20302;-76
2020/12/22 03:57:16;;;;;;;2.50;0.55;;;17.00;90.20;;;;;;2084836;28;20561;-76
2020/12/22 03:58:27;;;;;;;4.60;0.63;;;17.20;89.10;;;;;;2083498;28;20140;-77
2020/12/22 03:59:36;;;;;;;1.33;0.50;;;17.20;89.30;;;;;;2087288;28;20071;-76
2020/12/22 04:00:46;;;;;;;1.13;0.50;;;17.10;90.00;;;;;;2087957;28;20596;-76
2020/12/22 04:01:57;;;;;;;3.15;0.52;;;17.10;89.50;;;;;;2087096;28;20045;-76
2020/12/22 04:03:05;;;;;;;1.35;0.47;;;16.90;90.30;;;;;;2086663;28;20117;-77
2020/12/22 04:04:34;;;;;;;3.10;0.45;;;17.10;89.70;;;;;;2073993;28;20115;-76
2020/12/22 04:05:37;;;;;;;1.75;0.40;;;17.40;88.80;;;;;;2074946;28;20506;-76
2020/12/22 04:06:53;;;;;;;2.50;0.50;;;17.40;88.70;;;;;;2080424;28;20129;-77
2020/12/22 04:08:14;;;;;;;0.68;0.40;;;17.30;89.10;;;;;;2087859;28;20065;-77
2020/12/22 04:09:33;;;;;;;3.00;0.60;;;17.20;89.80;;;;;;2087686;28;20128;-77
2020/12/22 04:10:46;;;;;;;1.83;0.52;;;17.10;90.00;;;;;;2088377;28;20050;-77
2020/12/22 04:12:08;;;;;;;1.58;0.60;;;17.30;89.10;;;;;;2088727;28;20060;-77
2020/12/22 04:13:23;;;;;;;1.88;0.47;;;17.30;88.80;;;;;;2083629;28;20050;-77
2020/12/22 04:14:32;;;;;;;3.53;0.90;;;17.20;88.90;;;;;;2088747;28;20054;-77
2020/12/22 04:15:48;;;;;;;2.70;0.60;;;17.30;88.40;;;;;;2088992;28;20041;-77
2020/12/22 04:17:08;;;;;;;1.73;0.32;;;17.20;88.50;;;;;;2087669;28;20175;-78
2020/12/22 04:18:41;;;;;;;3.60;0.55;;;17.40;88.50;;;;;;2087859;28;20056;-77
2020/12/22 04:19:54;;;;;;;1.70;0.60;;;17.10;89.40;;;;;;2087636;28;20052;-78
2020/12/22 04:21:20;;;;;;;1.55;0.70;;;16.90;90.00;;;;;;2086907;28;20109;-77
2020/12/22 04:22:45;;;;;;;1.25;0.45;;;16.90;90.10;;;;;;2087717;28;20083;-77
2020/12/22 04:23:58;;;;;;;1.65;0.40;;;17.10;89.40;;;;;;2079457;28;20117;-77
2020/12/22 04:25:20;;;;;;;3.10;0.63;;;17.10;89.50;;;;;;2073660;28;20054;-77
2020/12/22 04:27:03;;;;;;;3.20;0.50;;;17.20;89.00;;;;;;2070820;28;20069;-77
2020/12/22 04:28:58;;;;;;;1.90;0.40;;;17.00;89.20;;;;;;2071686;28;20050;-77
2020/12/22 04:30:27;;;;;;;2.95;0.50;;;17.20;88.50;;;;;;2066618;28;20054;-77
2020/12/22 04:31:57;;;;;;;3.33;0.50;;;17.20;89.00;;;;;;2073885;28;20035;-78
2020/12/22 04:33:08;;;;;;;2.47;0.60;;;17.00;89.70;;;;;;2073709;28;20056;-77
2020/12/22 04:34:35;;;;;;;0.93;0.40;;;17.10;89.70;;;;;;2076456;28;20078;-77
2020/12/22 04:35:56;;;;;;;1.15;0.50;;;16.10;88.80;;;;;;2076111;28;20045;-77
2020/12/22 04:37:04;;;;;;;2.03;0.43;;;17.00;89.00;;;;;;2072026;28;20050;-77
2020/12/22 04:38:39;;;;;;;1.17;0.55;;;17.20;89.20;;;;;;2081838;28;20141;-78
2020/12/22 04:40:15;;;;;;;2.57;0.43;;;17.10;88.90;;;;;;2070993;28;20051;-77
2020/12/22 04:42:06;;;;;;;2.45;0.63;;;17.20;89.40;;;;;;2075136;28;20280;-77
2020/12/22 04:43:13;;;;;;;1.65;0.55;;;16.60;90.00;;;;;;2071345;28;20278;-79
2020/12/22 04:45:09;;;;;;;1.92;0.63;;;16.70;90.20;;;;;;2075576;28;20110;-76
2020/12/22 04:46:20;;;;;;;0.70;0.40;;;16.70;90.30;;;;;;2074680;28;20046;-76
2020/12/22 04:47:37;;;;;;;2.80;0.50;;;17.10;89.20;;;;;;2074302;28;20034;-76
2020/12/22 04:48:41;;;;;;;2.42;0.50;;;17.30;88.40;;;;;;2073780;28;20061;-76
2020/12/22 04:49:50;;;;;;;3.85;0.55;;;17.20;88.40;;;;;;2075164;28;20042;-76
2020/12/22 04:51:33;;;;;;;4.07;0.75;;;17.30;88.70;;;;;;2075367;28;20077;-76
2020/12/22 04:52:46;;;;;;;2.67;0.60;;;17.10;88.60;;;;;;2074308;28;20143;-77
2020/12/22 04:54:11;;;;;;;1.98;0.68;;;17.10;88.80;;;;;;2071464;28;20030;-77
2020/12/22 04:55:21;;;;;;;0.93;0.50;;;17.10;88.10;;;;;;2075906;28;20038;-77
2020/12/22 04:56:45;;;;;;;3.70;0.70;;;17.20;88.30;;;;;;2058718;28;20070;-77
2020/12/22 04:58:15;;;;;;;3.08;0.50;;;17.40;87.50;;;;;;2056350;28;20034;-77
2020/12/22 04:59:55;;;;;;;1.85;0.60;;;17.60;86.90;;;;;;2078235;28;20054;-76
2020/12/22 05:01:05;;;;;;;2.28;0.50;;;17.60;86.40;;;;;;2090223;28;20133;-77
2020/12/22 05:02:18;;;;;;;1.77;0.60;;;17.50;87.10;;;;;;2092415;28;20088;-77
2020/12/22 05:03:46;;;;;;;4.25;0.75;;;17.40;87.00;;;;;;2075575;28;20046;-77
2020/12/22 05:05:03;;;;;;;2.72;0.40;;;17.30;88.00;;;;;;2081400;28;20045;-77
2020/12/22 05:06:41;;;;;;;2.40;0.63;;;17.40;87.60;;;;;;2092120;28;20053;-77
2020/12/22 05:08:19;;;;;;;4.90;0.65;;;17.50;87.00;;;;;;2088714;28;20034;-77
2020/12/22 05:09:44;;;;;;;2.70;0.57;;;17.20;88.30;;;;;;2091428;28;20037;-77
2020/12/22 05:11:04;;;;;;;3.20;0.50;;;17.10;89.10;;;;;;2083112;28;20316;-76
2020/12/22 05:12:41;;;;;;;3.83;0.70;;;17.00;89.20;;;;;;2090422;28;20041;-77
2020/12/22 05:14:04;;;;;;;1.08;0.50;;;17.00;89.70;;;;;;2091843;28;20105;-77
2020/12/22 05:15:26;;;;;;;1.05;0.38;;;17.20;88.70;;;;;;2065945;28;20057;-77
2020/12/22 05:16:58;;;;;;;2.70;0.60;;;17.40;88.40;;;;;;2066403;28;20047;-77
2020/12/22 05:18:35;;;;;;;2.78;0.50;;;17.10;89.50;;;;;;2066765;28;20035;-77
2020/12/22 05:20:03;;;;;;;2.42;0.80;;;16.80;90.20;;;;;;2066936;28;20074;-76
2020/12/22 05:21:25;;;;;;;1.75;0.50;;;16.50;91.00;;;;;;2059314;28;20057;-77
2020/12/22 05:22:55;;;;;;;3.33;0.50;;;16.40;91.00;;;;;;2067031;28;20082;-77
2020/12/22 05:24:22;;;;;;;1.83;0.60;;;16.60;91.00;;;;;;2058144;28;20058;-77
2020/12/22 05:25:50;;;;;;;1.42;0.52;;;16.50;90.80;;;;;;2065865;28;20043;-77
2020/12/22 05:27:04;;;;;;;3.90;0.70;;;16.40;91.70;;;;;;2066968;28;20051;-77
2020/12/22 05:28:33;;;;;;;2.58;0.40;;;16.50;91.70;;;;;;2058877;28;20055;-77
2020/12/22 05:30:02;;;;;;;3.88;0.65;;;16.60;91.30;;;;;;2063656;28;20059;-77
2020/12/22 05:31:27;;;;;;;4.35;1.25;;;16.70;90.90;;;;;;2066812;28;20054;-77
2020/12/22 05:33:05;;;;;;;2.97;0.52;;;16.30;91.30;;;;;;2066810;28;20066;-76
2020/12/22 05:34:20;;;;;;;1.85;0.55;;;16.30;91.90;;;;;;2073443;28;20056;-77
2020/12/22 05:35:37;;;;;;;3.50;0.60;;;16.60;91.40;;;;;;2086866;28;20029;-78
2020/12/22 05:36:45;;;;;;;0.80;0.43;;;16.60;91.10;;;;;;2083164;28;20060;-75
2020/12/22 05:38:12;;;;;;;;;;;16.50;91.00;;;;;;2086702;28;20105;-76
2020/12/22 05:39:47;;;;;;;2.67;0.30;;;16.60;91.00;;;;;;2090449;28;19963;-77
2020/12/22 05:41:23;;;;;;;0.75;0.30;;;16.80;90.40;;;;;;2098908;28;20057;-77
2020/12/22 05:43:13;;;;;;;2.85;0.63;;;16.80;90.50;;;;;;2094269;28;20090;-77
2020/12/22 05:44:48;;;;;;;0.55;0.30;;;16.80;90.30;;;;;;2091554;28;20029;-76
2020/12/22 05:46:09;;;;;;;1.83;0.40;;;16.70;90.90;;;;;;2075224;28;20054;-77
2020/12/22 05:47:40;;;;;;;1.67;0.30;;;16.90;90.00;;;;;;2082661;28;20104;-76
2020/12/22 05:49:06;;;;;;;1.67;0.50;;;17.00;90.20;;;;;;2092402;28;20041;-76
2020/12/22 05:50:29;;;;;;;1.55;0.40;;;17.00;89.80;;;;;;2092005;28;20045;-76
2020/12/22 05:51:47;;;;;;;0.88;0.38;;;17.20;89.10;;;;;;2090131;28;20033;-76
2020/12/22 05:53:17;;;;;;;3.75;0.52;;;17.10;89.40;;;;;;2091751;28;20037;-77
2020/12/22 05:54:50;;;;;;;1.65;0.30;;;17.00;89.60;;;;;;2075376;28;20041;-77
2020/12/22 05:56:17;;;;;;;2.50;0.57;;;17.10;89.20;;;;;;2078164;28;20105;-77
2020/12/22 05:57:35;;;;;;;1.27;0.40;;;17.00;89.50;;;;;;2088558;28;20117;-77
2020/12/22 05:59:16;;;;;;;1.40;0.40;;;16.90;89.90;;;;;;2091986;28;20056;-77
2020/12/22 06:01:01;;;;;;;1.85;0.55;;;17.20;88.90;;;;;;2091593;28;20050;-76
2020/12/22 06:02:30;;;;;;;0.98;0.40;;;16.90;89.80;;;;;;2091365;28;20041;-77
2020/12/22 06:04:23;;;;;;;1.35;0.40;;;16.80;90.00;;;;;;2076401;28;20096;-77
2020/12/22 06:06:36;;;;;;;1.40;0.40;;;16.80;90.20;;;;;;2091671;28;20080;-76
2020/12/22 06:08:47;;;;;;;1.75;0.40;;;17.10;88.90;;;;;;2092238;28;20068;-79
2020/12/22 06:11:50;;;;;;;3.08;0.52;;;17.10;89.20;;;;;;2081173;28;20052;-77
2020/12/22 06:13:56;;;;;;;1.23;0.30;;;17.10;89.30;;;;;;2083801;28;20030;-78
2020/12/22 06:15:39;;;;;;;3.88;0.40;;;17.10;89.30;;;;;;2081672;28;20045;-77
2020/12/22 06:17:57;;;;;;;2.45;0.50;;;16.90;89.80;;;;;;2081777;28;20144;-76
2020/12/22 06:20:05;;;;;;;2.17;0.45;;;17.20;88.30;;;;;;2082974;28;20038;-77
2020/12/22 06:22:37;;;;;;;3.72;0.57;;;17.10;88.80;;;;;;2075301;28;20030;-77
2020/12/22 06:25:01;;;;;;;1.58;0.40;;;16.70;90.10;;;;;;2081219;28;20057;-78
2020/12/22 06:26:56;;;;;;;1.15;0.40;;;16.50;90.70;;;;;;2077151;28;20093;-78
2020/12/22 06:29:14;;;;;;;0.85;0.50;;;16.80;90.20;;;;;;2081892;28;20049;-78
2020/12/22 06:31:40;;;;;;;2.40;0.60;;;16.90;90.10;;;;;;2082901;28;20056;-76
2020/12/22 06:36:10;;;;;;;3.97;0.60;;;17.10;88.80;;;;;;2081892;28;20038;-77
2020/12/22 06:38:27;;;;;;;4.53;0.32;;;17.00;89.30;;;;;;2052770;28;20047;-78
2020/12/22 06:40:22;;;;;;;2.45;0.50;;;16.90;90.10;;;;;;2055702;28;20035;-77
2020/12/22 06:42:38;;;;;;;0.77;0.32;;;16.70;90.50;;;;;;2068061;28;20062;-77
2020/12/22 06:44:33;;;;;;;4.05;0.77;;;16.60;90.40;;;;;;2052983;28;20044;-76
2020/12/22 06:47:04;;;;;;;1.38;0.40;;;16.80;90.40;;;;;;2086291;28;20030;-77
2020/12/22 06:49:33;;;;;;;2.97;0.60;;;16.90;90.00;;;;;;2093283;28;20029;-77
2020/12/22 06:51:21;;;;;;;2.78;0.60;;;17.00;89.60;;;;;;2084391;28;20030;-77
2020/12/22 06:52:45;;;;;;;1.00;0.30;;;16.80;90.00;;;;;;2091908;28;20076;-76
2020/12/22 06:54:25;;;;;;;0.80;0.50;;;17.00;89.80;;;;;;2092994;28;20057;-77
2020/12/22 06:55:57;;;;;;;1.70;0.57;;;16.80;90.00;;;;;;2093017;28;20052;-77
2020/12/22 06:57:48;;;;;;;1.15;0.40;;;16.90;89.80;;;;;;2093337;28;20045;-77
2020/12/22 06:59:12;;;;;;;0.68;0.30;;;16.70;90.00;;;;;;2093281;28;20067;-77
2020/12/22 07:01:33;;;;;;;1.25;0.50;;;16.60;90.40;;;;;;2092905;28;20084;-76
2020/12/22 07:04:26;;;;;;;1.00;0.38;;;16.40;90.90;;;;;;2092104;28;20136;-77
2020/12/22 07:06:09;;;;;;;5.78;0.75;;;16.70;90.20;;;;;;2036295;29;20100;-79
2020/12/22 07:08:21;;;;;;;1.50;0.60;;;16.60;90.50;;;;;;2044567;29;20032;-79
2020/12/22 07:10:12;;;;;;;1.95;0.40;;;16.80;90.00;;;;;;2022584;29;20101;-76
2020/12/22 07:12:15;;;;;;;1.05;0.40;;;16.90;89.60;;;;;;2043702;29;20088;-77
2020/12/22 07:17:07;;;;;;;1.83;0.50;;;16.90;89.50;;;;;;2006021;29;20090;-77
2020/12/22 07:18:46;;;;;;;2.88;0.50;;;16.90;89.30;;;;;;2005443;29;20051;-77
2020/12/22 07:20:10;;;;;;;8.45;0.82;;;17.10;88.70;;;;;;2005523;29;20102;-76
2020/12/22 07:22:00;;;;;;;4.90;0.80;;;17.10;88.60;;;;;;2008916;29;20066;-77
2020/12/22 07:23:37;;;;;;;2.33;0.80;;;17.40;88.10;;;;;;2012279;29;20264;-77
2020/12/22 07:24:47;;;;;;;1.90;0.57;;;17.10;88.30;;;;;;2013063;29;20139;-77
2020/12/22 07:26:21;;;;;;;2.10;0.45;;;17.00;88.90;;;;;;2012440;29;20073;-77
2020/12/22 07:28:55;;;;;;;4.20;0.47;;;17.10;88.70;;;;;;2014024;29;20064;-77
2020/12/22 07:30:58;;;;;;;1.02;0.60;;;17.20;88.10;;;;;;1976204;30;20044;-77
2020/12/22 07:35:37;;;;;;;1.20;0.30;;;17.40;87.10;;;;;;1975704;29;20052;-77
2020/12/22 07:38:12;;;;;;;3.28;1.17;;;16.70;90.00;;;;;;1983584;29;20063;-77
2020/12/22 07:40:17;;;;;;;5.38;0.93;;;16.70;90.10;;;;;;1954354;30;20078;-77
2020/12/22 07:42:52;;;;;;;4.43;0.80;;;16.50;90.40;;;;;;1970200;29;20044;-78
2020/12/22 07:44:14;;;;;;;2.88;0.55;;;16.40;90.60;;;;;;2008646;29;20054;-76
2020/12/22 07:45:59;;;;;;;2.47;0.70;;;16.60;90.30;;;;;;2005253;29;20070;-77
2020/12/22 07:47:28;;;;;;;3.97;0.75;;;16.50;90.30;;;;;;2026068;29;20068;-77
2020/12/22 07:49:01;;;;;;;2.03;1.00;;;16.80;90.00;;;;;;2044147;29;20048;-78
2020/12/22 07:50:43;;;;;;;6.40;0.70;;;16.90;89.70;;;;;;2068095;28;20042;-77
2020/12/22 07:53:28;;;;;;;4.10;0.73;;;16.70;90.00;;;;;;2067638;28;20031;-78
2020/12/22 07:55:10;;;;;;;8.23;1.20;;;16.90;89.90;;;;;;2066894;28;20046;-79
2020/12/22 07:56:21;;;;;;;3.00;0.60;;;16.70;90.30;;;;;;2067700;28;20047;-76
2020/12/22 07:58:24;;;;;;;7.25;1.38;;;16.90;89.90;;;;;;2059976;28;20039;-77
2020/12/22 08:00:17;;;;;;;9.25;1.10;;;16.30;89.70;;;;;;2068456;28;20035;-78
2020/12/22 08:01:58;;;;;;;2.65;0.70;;;16.90;89.90;;;;;;2067875;28;20085;-78
2020/12/22 08:03:58;;;;;;;3.20;0.80;;;17.10;89.10;;;;;;2067017;28;20069;-78
2020/12/22 08:06:10;;;;;;;2.88;0.77;;;17.00;88.70;;;;;;2044548;29;20048;-76
2020/12/22 08:08:15;;;;;;;4.28;0.55;;;17.10;88.60;;;;;;2028641;29;20033;-78